Rechercher aéroport 
image banner adimage banner ad
image banner ad

FYHONO - Honolulopan

Situé à , Namibia

ICAO - , IATA -

Données fournies par Airmate  

Information générale

Coordonnées: S22°53'15" E18°26'20"
Élévation : 4471 feet MSL.
 
Voir autres Aéroports à Khomae

Données opérationnelles

Accessible au public
Heure actuelle UTC:
Heure actuelle locale:
Météo à : FYGB - Gobabis ( 71 km )
METAR: FYGB 170500Z AUTO 00000KT //// // ////// 20/15 Q1018
Voir NOTAMs / SUP AIP / TFR affectant cet aéroport [VIEW]
Fréquences de communication: [VIEW]

Pistes:

Identifiant RWYQFULongueur (ft)Largeur (ft)SurfaceLDA (ft)
1350°2625164GRASS
31230°2625164GRASS

Coordonnées de l'aéroport

Adresse: Namibia

Vue satellite de FYHONO